Latest Weather Observations for Maryborough

IDQ60801

Issued at 11:04 am EST Wednesday 28 January 2015 (issued every 30 minutes, with the page automatically refreshed every 10 minutes)

About weather observations | Map of weather stations | Latest weather observations for QLD | Other Formats
Station Details ID: 040126 Name: MARYBOROUGH Lat: -25.52 Lon: 152.72 Height: 10.28 m
Data from the previous 72 hours. | See also: Recent months at Maryborough
Date/Time
EST
Temp
°C
App
Temp
°C
Dew
Point
Rel
Hum
%
Delta-T
°C
Wind Press
QNH
hPa
Press
MSL
hPa
Rain
since 9 am
mm
Dir
 
Spd
km/h
Gust
km/h
Spd
kts
Gust
kts
28/11:00am 24.8 25.8 21.1 80 2.4 SSE 17 26 9 14 1005.5 - 0.2
28/10:30am 24.2 24.9 20.5 80 2.4 S 17 24 9 13 1005.4 - 0.0
28/10:00am 24.1 24.1 20.2 79 2.5 SSE 20 28 11 15 1005.3 - 0.0
28/09:30am 25.2 26.1 20.9 77 2.8 S 17 26 9 14 1005.2 - 0.0
28/09:00am 25.4 26.2 20.6 75 3.2 SSE 17 24 9 13 1005.1 1005.0 0.4
28/08:30am 25.3 25.8 20.8 76 3.0 SSE 19 24 10 13 1004.8 - 0.4
28/08:08am 25.0 25.5 20.9 78 2.7 SSE 19 26 10 14 1004.8 - 0.4
28/08:00am 24.7 25.3 21.0 80 2.4 SSE 19 26 10 14 1004.9 - 0.4
28/07:49am 24.5 25.4 20.8 80 2.4 SSE 17 26 9 14 1004.7 - 0.4
28/07:41am 24.5 25.4 20.8 80 2.4 SSE 17 24 9 13 1004.6 - 0.4
28/07:30am 24.3 24.9 21.0 82 2.2 SSE 19 28 10 15 1004.7 - 0.4
28/07:25am 24.3 24.7 21.0 82 2.2 S 20 30 11 16 1004.7 - 0.4
28/07:00am 23.8 25.9 20.9 84 1.9 S 11 17 6 9 1004.4 - 0.4
28/06:30am 23.3 25.0 21.0 87 1.5 S 13 15 7 8 1004.3 - 0.4
28/06:00am 22.9 24.6 21.0 89 1.2 SSE 13 20 7 11 1003.7 1003.6 0.4
28/05:30am 22.7 24.8 21.0 90 1.1 S 11 19 6 10 1003.7 - 0.4
28/05:00am 22.7 23.2 20.8 89 1.2 SSE 19 24 10 13 1003.0 - 0.4
28/04:30am 22.6 24.3 20.9 90 1.1 SSE 13 17 7 9 1003.2 - 0.4
28/04:00am 22.7 24.4 21.0 90 1.1 SSE 13 17 7 9 1003.3 - 0.4
28/03:30am 23.0 25.1 20.9 88 1.4 S 11 15 6 8 1003.9 - 0.2
28/03:00am 23.2 25.3 20.9 87 1.5 S 11 17 6 9 1003.9 1003.8 0.0
28/02:30am 23.1 25.2 21.0 88 1.4 S 11 17 6 9 1004.0 - 0.0
28/02:00am 23.9 25.9 20.8 83 2.0 SSE 11 15 6 8 1004.2 - 0.0
28/01:30am 24.2 26.4 21.1 83 2.0 SE 11 13 6 7 1004.5 - 0.0
28/01:00am 24.6 26.8 21.1 81 2.3 SSE 11 17 6 9 1004.8 - 0.0
28/12:30am 24.9 27.4 21.0 79 2.6 SSE 9 15 5 8 1005.4 - 0.0
28/12:00am 25.3 27.5 21.2 78 2.7 SE 11 17 6 9 1005.5 1005.4 0.0
 
Date/Time
EST
Temp
°C
App
Temp
°C
Dew
Point
Rel
Hum
%
Delta-T
°C
Wind Press
QNH
hPa
Press
MSL
hPa
Rain
since 9 am
mm
Dir
 
Spd
km/h
Gust
km/h
Spd
kts
Gust
kts
27/11:30pm 25.1 27.4 21.4 80 2.4 ESE 11 17 6 9 1005.3 - 0.0
27/11:00pm 25.3 27.6 21.4 79 2.6 ESE 11 19 6 10 1005.5 - 0.0
27/10:30pm 25.2 28.1 21.7 81 2.3 SE 9 11 5 6 1005.5 - 0.0
27/10:00pm 25.3 27.7 21.6 80 2.5 ESE 11 15 6 8 1005.3 - 0.0
27/09:30pm 25.5 27.5 21.6 79 2.6 ESE 13 17 7 9 1005.4 - 0.0
27/09:00pm 25.5 28.3 21.6 79 2.6 SE 9 11 5 6 1005.7 1005.6 0.0
27/08:30pm 25.8 27.9 21.7 78 2.7 E 13 17 7 9 1005.4 - 0.0
27/08:00pm 25.7 27.7 21.6 78 2.7 ESE 13 17 7 9 1005.2 - 0.0
27/07:30pm 26.1 27.3 21.5 76 3.1 E 17 22 9 12 1005.4 - 0.0
27/07:00pm 26.1 27.2 21.3 75 3.2 E 17 24 9 13 1004.8 - 0.0
27/06:30pm 26.4 26.5 21.2 73 3.4 ESE 22 32 12 17 1004.3 - 0.0
27/06:00pm 26.8 26.7 21.5 72 3.5 ESE 24 33 13 18 1004.2 1004.1 0.0
27/05:30pm 27.0 26.4 21.3 71 3.8 ESE 26 37 14 20 1003.9 - 0.0
27/05:00pm 27.9 27.3 21.2 67 4.5 ESE 26 41 14 22 1003.5 - 0.0
27/04:30pm 29.1 29.2 21.1 62 5.3 ESE 22 32 12 17 1003.4 - 0.0
27/04:00pm 28.8 27.6 20.0 59 5.8 ESE 26 37 14 20 1003.4 - 0.0
27/03:30pm 28.6 27.9 20.3 60 5.5 ESE 24 35 13 19 1003.7 - 0.0
27/03:00pm 30.5 30.3 21.3 58 6.2 ESE 24 33 13 18 1003.9 1003.8 0.0
27/02:30pm 30.6 30.9 20.8 56 6.5 ESE 20 28 11 15 1004.2 - 0.0
27/02:00pm 30.8 30.0 20.1 53 7.1 ESE 24 33 13 18 1004.3 - 0.0
27/01:30pm 29.9 29.4 19.0 52 7.1 ESE 20 30 11 16 1004.7 - 0.0
27/01:00pm 30.5 29.9 19.8 52 7.0 ESE 22 35 12 19 1004.7 - 0.0
27/12:30pm 30.3 29.8 19.9 53 6.8 ESE 22 32 12 17 1005.3 - 0.0
27/12:00pm 30.8 31.0 21.3 57 6.4 ESE 22 33 12 18 1005.7 1005.6 0.0
27/11:30am 30.5 30.0 20.7 55 6.5 ESE 24 33 13 18 1005.9 - 0.0
27/11:00am 30.6 30.5 21.4 58 6.2 E 24 32 13 17 1006.3 - 0.0
27/10:30am 29.7 29.4 20.3 57 6.2 SE 22 32 12 17 1006.5 - 0.0
27/10:00am 30.3 30.9 21.1 58 6.1 ESE 19 30 10 16 1006.7 - 0.0
27/09:30am 29.4 30.0 21.1 61 5.5 ESE 19 30 10 16 1006.7 - 0.0
27/09:00am 30.3 31.0 22.2 62 5.5 ESE 22 30 12 16 1006.6 1006.5 0.0
27/08:30am 29.1 29.7 21.3 62 5.2 ESE 20 30 11 16 1006.1 - 0.0
27/08:00am 28.2 28.7 22.0 69 4.2 ESE 22 30 12 16 1006.0 - 0.0
27/07:30am 27.8 28.4 22.1 71 3.8 ESE 22 30 12 16 1005.8 - 0.0
27/07:00am 27.2 29.9 22.8 77 3.0 SSE 13 19 7 10 1005.9 - 0.0
27/06:30am 26.1 29.0 22.4 80 2.5 SSE 11 15 6 8 1005.6 - 0.0
27/06:00am 24.8 28.3 22.9 89 1.3 S 9 11 5 6 1005.8 1005.7 0.0
27/05:30am 24.1 27.5 22.0 88 1.4 SSW 7 9 4 5 1006.0 - 0.0
27/05:00am 24.4 28.0 22.1 87 1.5 SE 6 7 3 4 1005.7 - 0.0
27/04:30am 25.1 28.4 22.6 86 1.7 SE 9 9 5 5 1005.8 - 0.0
27/04:00am 25.2 29.1 22.5 85 1.8 SSE 6 7 3 4 1005.3 - 0.0
27/03:30am 25.4 28.7 22.5 84 2.0 SSE 9 13 5 7 1005.0 - 0.0
27/03:00am 25.4 27.9 22.5 84 2.0 ESE 13 15 7 8 1004.3 1004.2 0.0
27/02:30am 25.7 28.9 23.0 85 1.8 ESE 11 15 6 8 1004.6 - 0.0
27/02:00am 26.2 29.9 23.3 84 2.0 SE 9 17 5 9 1005.1 - 0.0
27/01:30am 26.3 30.1 23.4 84 2.0 ESE 9 13 5 7 1005.3 - 0.0
27/01:00am 26.3 29.7 23.4 84 2.0 ESE 11 15 6 8 1005.4 - 0.0
27/12:30am 26.5 29.2 23.4 83 2.1 ESE 15 20 8 11 1005.7 - 0.0
27/12:00am 26.6 29.7 23.5 83 2.1 ESE 13 19 7 10 1005.8 1005.7 0.0
 
Date/Time
EST
Temp
°C
App
Temp
°C
Dew
Point
Rel
Hum
%
Delta-T
°C
Wind Press
QNH
hPa
Press
MSL
hPa
Rain
since 9 am
mm
Dir
 
Spd
km/h
Gust
km/h
Spd
kts
Gust
kts
26/11:30pm 26.7 29.4 23.4 82 2.3 ESE 15 20 8 11 1006.2 - 0.0
26/11:00pm 27.1 29.5 23.6 81 2.4 SE 17 24 9 13 1006.8 - 0.0
26/10:30pm 27.1 29.7 24.0 83 2.1 SE 17 24 9 13 1007.2 - 0.0
26/10:00pm 27.2 29.6 24.3 84 2.0 ESE 19 30 10 16 1006.9 - 0.0
26/09:30pm 27.3 30.7 24.6 85 1.9 SE 15 22 8 12 1007.1 - 0.0
26/09:00pm 27.2 30.9 24.6 86 1.8 ESE 13 17 7 9 1006.5 1006.4 0.0
26/08:30pm 27.4 31.6 24.7 85 1.9 E 11 17 6 9 1006.5 - 0.0
26/08:00pm 27.5 30.9 24.7 85 1.9 E 15 28 8 15 1006.1 - 0.0
26/07:30pm 27.5 30.2 24.7 85 1.9 ESE 19 24 10 13 1005.8 - 0.0
26/07:00pm 27.9 31.4 24.9 84 2.1 ESE 15 24 8 13 1005.7 - 0.0
26/06:30pm 27.9 32.1 24.7 83 2.2 E 11 15 6 8 1005.8 - 0.0
26/06:00pm 27.9 31.1 24.3 81 2.5 SE 15 20 8 11 1005.3 1005.2 0.0
26/05:30pm 28.2 30.9 24.2 79 2.8 SE 17 24 9 13 1005.2 - 0.0
26/05:00pm 28.5 31.3 24.3 78 2.9 E 17 26 9 14 1004.3 - 0.0
26/04:30pm 29.0 30.6 23.9 74 3.5 ESE 22 30 12 16 1003.9 - 0.0
26/04:00pm 30.8 32.8 24.0 67 4.7 ESE 20 30 11 16 1003.3 - 0.0
26/03:30pm 31.5 32.3 23.1 61 5.8 E 24 32 13 17 1003.0 - 0.0
26/03:00pm 32.2 33.8 23.2 59 6.2 ESE 20 33 11 18 1003.4 1003.3 0.0
26/02:30pm 33.4 34.9 23.7 56 6.8 E 22 32 12 17 1003.5 - 0.0
26/02:00pm 33.8 35.1 22.6 52 7.7 E 20 28 11 15 1003.6 - 0.0
26/01:30pm 34.0 36.1 23.1 53 7.5 ESE 17 24 9 13 1003.8 - 0.0
26/01:00pm 33.4 35.9 23.1 54 7.1 E 15 22 8 12 1004.1 - 0.0
26/12:30pm 33.5 36.0 23.8 57 6.8 E 17 22 9 12 1004.3 - 0.0
26/12:00pm 33.3 36.5 23.0 54 7.1 ESE 11 20 6 11 1004.8 1004.7 0.0
26/11:30am 33.1 36.3 23.1 55 6.9 SSE 11 17 6 9 1005.1 - 0.0
26/11:00am 32.2 34.4 21.1 52 7.5 SSE 11 17 6 9 1005.4 - 0.0
26/10:30am 31.7 35.4 23.2 60 5.9 SSE 9 13 5 7 1005.7 - 0.0
26/10:00am 30.9 34.8 23.0 62 5.4 ESE 7 13 4 7 1005.9 - 0.0
26/09:30am 30.2 34.0 23.4 67 4.7 SE 9 13 5 7 1006.1 - 0.0
26/09:00am 29.5 33.8 23.7 71 4.0 SE 7 9 4 5 1006.2 1006.1 27.2
26/08:30am 28.4 33.0 23.1 73 3.6 ENE 4 7 2 4 1006.2 - 27.2
26/08:00am 26.9 32.4 23.4 81 2.4 CALM 0 0 0 0 1006.4 - 27.2
26/07:30am 25.9 31.0 22.6 82 2.2 CALM 0 0 0 0 1006.3 - 27.2
26/07:00am 24.9 30.2 23.0 89 1.3 CALM 0 6 0 3 1006.3 - 27.2
26/06:30am 24.1 28.0 22.5 91 1.1 N 6 9 3 5 1006.4 - 27.2
26/06:00am 23.5 28.5 22.5 94 0.7 CALM 0 6 0 3 1006.1 1006.0 27.2
26/05:30am 22.7 27.4 21.9 95 0.5 CALM 0 7 0 4 1005.7 - 27.2
26/05:00am 22.6 26.0 21.6 94 0.7 NE 6 7 3 4 1005.2 - 27.2
26/04:30am 22.9 26.2 21.5 92 0.9 NE 6 7 3 4 1004.7 - 27.2
26/04:00am 23.3 26.8 21.9 92 0.9 NE 6 7 3 4 1004.6 - 27.2
26/03:30am 23.2 27.7 22.2 94 0.7 NE 2 7 1 4 1004.5 - 27.2
26/03:00am 22.8 27.4 21.8 94 0.7 CALM 0 0 0 0 1004.5 1004.4 27.2
26/02:30am 22.8 27.3 21.6 93 0.8 CALM 0 0 0 0 1004.7 - 27.2
26/02:00am 23.2 27.9 22.0 93 0.8 CALM 0 0 0 0 1005.1 - 27.2
26/01:30am 23.0 27.4 21.3 90 1.1 CALM 0 0 0 0 1005.3 - 27.2
26/01:00am 23.3 27.8 21.6 90 1.1 CALM 0 0 0 0 1005.5 - 27.2
26/12:30am 23.6 28.3 21.9 90 1.1 CALM 0 0 0 0 1005.7 - 27.2
26/12:00am 23.4 28.0 21.8 91 1.1 CALM 0 0 0 0 1006.6 1006.5 27.2
 
Date/Time
EST
Temp
°C
App
Temp
°C
Dew
Point
Rel
Hum
%
Delta-T
°C
Wind Press
QNH
hPa
Press
MSL
hPa
Rain
since 9 am
mm
Dir
 
Spd
km/h
Gust
km/h
Spd
kts
Gust
kts
25/11:30pm 23.2 27.3 21.6 91 1.1 NE 2 7 1 4 1006.3 - 27.2
25/11:00pm 23.3 26.2 21.7 91 1.1 NNE 9 13 5 7 1006.5 - 27.2
25/10:30pm 23.2 27.8 21.8 92 0.9 CALM 0 0 0 0 1006.0 - 27.2
25/10:00pm 22.9 27.2 21.2 90 1.1 CALM 0 0 0 0 1005.8 - 27.2
25/09:30pm 23.3 26.4 21.4 89 1.3 NE 7 11 4 6 1005.7 - 27.2
25/09:00pm 23.7 26.9 21.6 88 1.4 NNW 7 11 4 6 1005.3 1005.2 27.2
25/08:30pm 23.6 26.8 21.7 89 1.3 NNW 7 15 4 8 1005.4 - 27.2
25/08:00pm 23.5 27.6 21.6 89 1.3 SSW 2 9 1 5 1005.4 - 27.2
25/07:30pm 23.6 25.2 20.7 84 1.9 SSW 13 17 7 9 1005.3 - 27.2
25/07:00pm 23.7 26.4 20.6 83 2.0 W 7 11 4 6 1004.6 - 27.2
25/06:30pm 23.8 25.8 20.7 83 2.0 N 11 17 6 9 1004.3 - 27.2
25/06:00pm 24.1 24.8 21.2 84 1.9 NNW 19 26 10 14 1003.3 1003.2 27.2
25/05:30pm 24.9 26.3 21.8 83 2.1 N 17 24 9 13 1002.5 - 27.0
25/05:00pm 24.6 24.9 21.5 83 2.1 N 22 28 12 15 1002.4 - 26.6
25/04:56pm 24.2 24.1 20.7 81 2.3 N 22 28 12 15 1002.8 - 26.4
25/04:30pm 24.0 24.8 21.3 85 1.8 WNW 19 35 10 19 1004.0 - 20.0
25/04:29pm 24.2 25.1 21.5 85 1.8 WNW 19 39 10 21 1004.1 - 19.4
25/04:13pm 25.2 24.3 21.5 80 2.5 WSW 28 37 15 20 1004.2 - 8.4
25/04:02pm 26.0 27.1 21.2 75 3.2 WSW 17 22 9 12 1002.9 - 5.4
25/04:00pm 26.4 27.7 20.9 72 3.6 SW 15 22 8 12 1003.0 - 4.8
25/03:54pm 26.7 26.5 19.8 66 4.5 SSE 20 30 11 16 1002.8 - 1.2
25/03:37pm 32.0 30.1 20.9 52 7.4 ESE 32 46 17 25 1002.4 - 0.0
25/03:30pm 32.9 35.9 25.2 64 5.5 ENE 19 26 10 14 1002.2 - 0.0
25/03:00pm 33.2 37.1 26.0 66 5.2 NNE 17 24 9 13 1002.3 1002.2 0.0
25/02:30pm 32.1 35.8 25.2 67 4.9 NNE 15 22 8 12 1002.6 - 0.0
25/02:00pm 33.4 37.9 26.4 66 5.0 NNE 15 20 8 11 1003.0 - 0.0
25/01:30pm 33.6 37.9 26.1 65 5.4 N 15 24 8 13 1003.3 - 0.0
25/01:00pm 33.3 37.0 25.8 65 5.4 NE 17 24 9 13 1003.5 - 0.0
25/12:30pm 33.1 36.1 25.6 64 5.3 N 20 28 11 15 1004.0 - 0.0
25/12:00pm 33.4 37.4 25.1 61 5.9 NNW 13 20 7 11 1004.4 1004.3 0.0
25/11:30am 32.3 35.8 23.5 59 6.1 N 11 20 6 11 1005.1 - 0.0

Other Formats:

Comma delimited format used in spreadsheet applications
http://www.bom.gov.au/fwo/IDQ60801/IDQ60801.94567.axf

JavaScript Object Notation format (JSON) in row-major order
http://www.bom.gov.au/fwo/IDQ60801/IDQ60801.94567.json